Time;durP1;ratioP1;P1;durP2;ratioP2;P2;SDS_P1;SDS_P2;PMS_P1;PMS_P2;Temp;Humidity;BMP_temperature;BMP_pressure;BME280_temperature;BME280_humidity;BME280_pressure;Samples;Min_cycle;Max_cycle;Signal;HPM_P1;HPM_P2
2021/03/16 00:00:12;;;;;;;7.20;2.90;;;9.90;55.60;;;;;;5065595;28;20190;-45
2021/03/16 00:02:38;;;;;;;2.77;2.20;;;10.00;54.50;;;;;;5069453;28;20642;-44
2021/03/16 00:05:06;;;;;;;3.83;2.60;;;10.20;54.10;;;;;;5069456;28;20433;-44
2021/03/16 00:07:31;;;;;;;6.10;2.83;;;10.10;54.00;;;;;;5070741;28;20477;-44
2021/03/16 00:09:57;;;;;;;9.63;3.77;;;10.10;53.80;;;;;;5070590;28;20434;-44
2021/03/16 00:12:23;;;;;;;3.20;2.33;;;10.20;53.70;;;;;;5068878;28;20192;-44
2021/03/16 00:14:49;;;;;;;5.23;3.17;;;10.20;53.50;;;;;;5070320;28;20609;-44
2021/03/16 00:17:15;;;;;;;5.80;3.30;;;10.20;53.70;;;;;;5070452;28;20672;-45
2021/03/16 00:19:40;;;;;;;4.03;2.97;;;10.10;53.50;;;;;;5071166;28;20237;-44
2021/03/16 00:22:06;;;;;;;6.93;2.80;;;9.90;54.90;;;;;;5066539;28;20796;-44
2021/03/16 00:24:31;;;;;;;3.57;2.53;;;10.00;54.20;;;;;;5069188;28;20271;-44
2021/03/16 00:26:57;;;;;;;5.20;2.83;;;9.90;54.50;;;;;;5065838;28;20289;-43
2021/03/16 00:29:23;;;;;;;12.27;2.77;;;9.90;54.80;;;;;;5062298;28;20200;-44
2021/03/16 00:31:48;;;;;;;7.13;2.90;;;9.70;54.70;;;;;;5066879;28;20231;-44
2021/03/16 00:34:14;;;;;;;6.13;3.20;;;9.70;54.80;;;;;;5071745;28;20251;-43
2021/03/16 00:36:40;;;;;;;6.63;2.63;;;9.70;54.70;;;;;;5066393;28;20188;-44
2021/03/16 00:39:06;;;;;;;7.70;2.90;;;9.70;54.50;;;;;;5070610;28;20245;-44
2021/03/16 00:41:32;;;;;;;5.90;3.27;;;9.50;54.50;;;;;;5066570;28;20426;-44
2021/03/16 00:43:58;;;;;;;3.73;2.27;;;9.70;54.70;;;;;;5069209;28;20266;-44
2021/03/16 00:46:23;;;;;;;6.50;2.53;;;9.90;54.70;;;;;;5069415;28;20509;-44
2021/03/16 00:48:49;;;;;;;3.97;3.20;;;9.90;54.40;;;;;;5070859;28;20686;-45
2021/03/16 00:51:15;;;;;;;5.93;2.27;;;9.90;54.30;;;;;;5068087;28;20636;-44
2021/03/16 00:53:40;;;;;;;4.77;2.50;;;9.90;54.40;;;;;;5064463;28;20286;-44
2021/03/16 00:56:06;;;;;;;5.13;2.27;;;9.90;54.70;;;;;;5067861;28;20191;-44
2021/03/16 00:58:32;;;;;;;3.10;2.00;;;9.80;54.60;;;;;;5069463;28;20253;-44
2021/03/16 01:00:58;;;;;;;4.90;2.53;;;9.70;54.80;;;;;;5067166;28;20192;-45
2021/03/16 01:03:24;;;;;;;6.63;2.43;;;9.60;55.20;;;;;;5067248;28;20214;-44
2021/03/16 01:05:54;;;;;;;6.63;2.20;;;9.70;55.30;;;;;;5069312;28;20851;-44
2021/03/16 01:08:20;;;;;;;6.03;2.43;;;9.70;55.10;;;;;;5066393;28;20216;-43
2021/03/16 01:10:47;;;;;;;4.67;2.03;;;9.70;55.30;;;;;;5069972;28;20438;-44
2021/03/16 01:13:13;;;;;;;6.53;2.07;;;9.90;55.10;;;;;;5068997;28;20445;-44
2021/03/16 01:15:40;;;;;;;5.53;2.00;;;9.60;55.00;;;;;;5069568;28;20525;-44
2021/03/16 01:18:05;;;;;;;3.40;2.23;;;9.60;55.50;;;;;;5070727;28;20468;-44
2021/03/16 01:20:32;;;;;;;8.00;2.53;;;9.60;55.00;;;;;;5067151;28;20921;-44
2021/03/16 01:22:57;;;;;;;2.87;2.60;;;9.50;54.90;;;;;;5068367;28;20236;-44
2021/03/16 01:25:23;;;;;;;5.53;2.17;;;9.70;55.00;;;;;;5036243;28;20957;-44
2021/03/16 01:27:49;;;;;;;2.40;1.90;;;9.50;54.90;;;;;;5065611;28;20227;-43
2021/03/16 01:30:15;;;;;;;4.60;1.93;;;9.60;54.90;;;;;;5067640;28;20198;-48
2021/03/16 01:32:41;;;;;;;2.07;1.97;;;9.80;54.80;;;;;;5067891;28;20196;-44
2021/03/16 01:35:09;;;;;;;5.10;3.13;;;9.70;54.60;;;;;;5067450;28;20460;-44
2021/03/16 01:37:37;;;;;;;4.13;1.60;;;9.60;55.10;;;;;;5070063;28;20204;-44
2021/03/16 01:40:16;;;;;;;3.53;2.30;;;9.40;55.50;;;;;;5070220;28;20434;-45
2021/03/16 01:42:44;;;;;;;7.60;2.20;;;9.50;55.50;;;;;;5072235;28;20445;-44
2021/03/16 01:45:17;;;;;;;5.70;1.90;;;9.30;55.70;;;;;;5072162;28;20446;-44
2021/03/16 01:47:50;;;;;;;3.20;2.70;;;9.40;55.70;;;;;;5067284;28;20506;-44
2021/03/16 01:50:19;;;;;;;2.60;2.00;;;9.40;55.80;;;;;;5067389;28;20469;-44
2021/03/16 01:52:45;;;;;;;4.80;2.63;;;9.30;55.70;;;;;;5073227;28;20474;-44
2021/03/16 01:55:12;;;;;;;5.60;2.10;;;9.20;56.10;;;;;;5067037;28;20446;-44
2021/03/16 01:57:40;;;;;;;3.63;2.60;;;9.20;56.30;;;;;;5068118;28;20464;-44
2021/03/16 02:00:08;;;;;;;5.80;2.67;;;9.10;56.30;;;;;;5071011;28;20434;-44
2021/03/16 02:02:35;;;;;;;4.47;2.20;;;9.00;56.40;;;;;;5070773;28;20949;-43
2021/03/16 02:05:00;;;;;;;4.30;3.17;;;9.00;56.70;;;;;;5073239;28;20550;-44
2021/03/16 02:07:33;;;;;;;7.43;3.07;;;9.10;56.80;;;;;;5070703;28;20572;-44
2021/03/16 02:10:21;;;;;;;3.10;2.70;;;9.10;56.80;;;;;;5069295;28;20969;-44
2021/03/16 02:13:05;;;;;;;5.10;2.60;;;9.10;56.80;;;;;;5070878;28;20452;-44
2021/03/16 02:15:36;;;;;;;7.07;3.00;;;9.00;57.10;;;;;;5071162;28;20453;-44
2021/03/16 02:18:07;;;;;;;2.97;2.43;;;9.00;57.40;;;;;;5072337;28;20528;-44
2021/03/16 02:20:41;;;;;;;5.00;2.70;;;8.80;57.40;;;;;;5072235;28;20583;-44
2021/03/16 02:23:09;;;;;;;8.63;2.93;;;8.70;57.90;;;;;;5070220;28;20468;-44
2021/03/16 02:25:54;;;;;;;5.67;2.60;;;8.80;57.90;;;;;;5070751;28;20460;-44
2021/03/16 02:29:02;;;;;;;6.33;2.60;;;9.00;57.50;;;;;;5068079;28;20481;-44
2021/03/16 02:31:28;;;;;;;4.90;2.30;;;9.20;57.20;;;;;;5068865;28;20523;-44
2021/03/16 02:33:55;;;;;;;4.80;2.20;;;9.20;56.90;;;;;;5068771;28;21141;-44
2021/03/16 02:36:21;;;;;;;3.53;2.10;;;9.00;57.30;;;;;;5071504;28;20191;-44
2021/03/16 02:38:50;;;;;;;4.80;2.40;;;8.90;57.90;;;;;;5068778;28;20461;-44
2021/03/16 02:41:18;;;;;;;8.00;2.37;;;8.80;57.50;;;;;;5072148;28;20788;-44
2021/03/16 02:43:44;;;;;;;7.50;2.67;;;8.90;57.90;;;;;;5068381;28;20453;-44
2021/03/16 02:46:10;;;;;;;2.43;2.23;;;8.90;57.60;;;;;;5070582;28;20442;-44
2021/03/16 02:48:37;;;;;;;2.67;2.00;;;9.00;57.30;;;;;;5069994;28;20574;-45
2021/03/16 02:51:04;;;;;;;3.80;2.70;;;9.00;57.10;;;;;;5071326;28;20431;-44
2021/03/16 02:53:32;;;;;;;5.37;2.83;;;8.90;57.50;;;;;;5069839;28;20442;-44
2021/03/16 02:55:59;;;;;;;2.20;1.83;;;9.10;57.30;;;;;;5070326;28;20858;-44
2021/03/16 02:58:26;;;;;;;3.30;2.17;;;9.20;57.10;;;;;;5069708;28;20477;-44
2021/03/16 03:00:52;;;;;;;6.97;2.97;;;9.20;56.50;;;;;;5063962;28;20505;-45
2021/03/16 03:03:21;;;;;;;7.50;2.97;;;9.20;56.60;;;;;;5066117;28;20866;-44
2021/03/16 03:05:48;;;;;;;5.30;2.33;;;8.90;56.60;;;;;;5065494;28;20852;-44
2021/03/16 03:08:14;;;;;;;8.73;2.90;;;8.70;57.30;;;;;;5067493;28;20988;-44
2021/03/16 03:10:40;;;;;;;4.43;2.30;;;8.70;58.20;;;;;;5069627;28;20474;-44
2021/03/16 03:13:06;;;;;;;8.23;3.50;;;8.80;57.90;;;;;;5071963;28;20493;-44
2021/03/16 03:15:32;;;;;;;3.33;2.17;;;8.90;57.90;;;;;;5068793;28;20192;-44
2021/03/16 03:17:58;;;;;;;4.20;2.40;;;8.90;57.60;;;;;;5070768;28;20601;-44
2021/03/16 03:20:24;;;;;;;4.10;2.80;;;8.80;57.80;;;;;;5071403;28;20220;-44
2021/03/16 03:23:05;;;;;;;3.27;2.97;;;8.90;57.80;;;;;;5068784;28;20438;-43
2021/03/16 03:25:39;;;;;;;2.37;2.17;;;8.80;58.10;;;;;;5066681;28;20789;-44
2021/03/16 03:28:09;;;;;;;6.90;2.90;;;9.00;58.10;;;;;;5072231;28;20497;-44
2021/03/16 03:30:36;;;;;;;6.83;2.43;;;9.10;57.70;;;;;;5066897;28;21135;-44
2021/03/16 03:33:04;;;;;;;4.77;2.30;;;9.20;57.50;;;;;;5067192;28;20529;-45
2021/03/16 03:35:32;;;;;;;4.43;2.40;;;9.20;57.90;;;;;;5068998;28;20438;-44
2021/03/16 03:37:58;;;;;;;5.47;2.40;;;9.00;58.60;;;;;;5066886;28;20933;-44
2021/03/16 03:40:26;;;;;;;4.83;2.63;;;9.00;58.90;;;;;;5071526;28;20543;-43
2021/03/16 03:42:55;;;;;;;5.73;2.50;;;9.10;59.00;;;;;;5067303;28;20469;-43
2021/03/16 03:45:22;;;;;;;3.87;2.57;;;9.00;59.20;;;;;;5071808;28;20449;-44
2021/03/16 03:47:50;;;;;;;3.33;2.17;;;9.10;59.30;;;;;;5069074;28;20840;-44
2021/03/16 03:50:17;;;;;;;5.70;2.20;;;9.00;59.00;;;;;;5068731;28;20521;-44
2021/03/16 03:52:44;;;;;;;8.03;2.50;;;8.80;59.50;;;;;;5068668;28;20442;-44
2021/03/16 03:55:12;;;;;;;6.17;2.57;;;9.00;59.40;;;;;;5069618;28;20438;-44
2021/03/16 03:57:41;;;;;;;2.93;2.30;;;9.10;59.00;;;;;;5070733;28;20446;-43
2021/03/16 04:00:11;;;;;;;4.40;1.97;;;9.10;58.90;;;;;;5068227;28;20446;-43
2021/03/16 04:02:37;;;;;;;4.37;2.53;;;9.20;58.90;;;;;;5069831;28;20438;-44
2021/03/16 04:05:04;;;;;;;5.87;2.70;;;9.10;58.80;;;;;;5068181;28;20442;-44
2021/03/16 04:07:33;;;;;;;3.43;2.60;;;9.20;58.40;;;;;;5063877;28;20477;-44
2021/03/16 04:09:58;;;;;;;9.63;2.87;;;9.00;58.70;;;;;;5062128;28;20458;-44
2021/03/16 04:12:24;;;;;;;6.80;2.87;;;8.90;59.20;;;;;;5071352;28;20435;-44
2021/03/16 04:14:50;;;;;;;4.40;2.50;;;9.00;58.90;;;;;;5070480;28;20192;-44
2021/03/16 04:17:16;;;;;;;3.10;2.13;;;8.90;58.90;;;;;;5068633;28;20203;-44
2021/03/16 04:19:42;;;;;;;5.47;2.10;;;9.10;58.90;;;;;;5068781;28;20188;-44
2021/03/16 04:22:08;;;;;;;4.73;2.50;;;9.00;58.90;;;;;;5070141;28;20534;-43
2021/03/16 04:24:34;;;;;;;2.90;2.17;;;9.10;59.00;;;;;;5069635;28;20531;-44
2021/03/16 04:27:00;;;;;;;4.47;2.07;;;9.20;58.80;;;;;;5067250;28;20437;-44
2021/03/16 04:29:25;;;;;;;4.40;2.40;;;9.10;58.00;;;;;;5068291;28;20450;-43
2021/03/16 04:31:51;;;;;;;3.50;1.97;;;8.80;57.90;;;;;;5067919;28;21901;-44
2021/03/16 04:34:16;;;;;;;7.40;2.60;;;8.80;58.70;;;;;;5065662;28;20191;-44
2021/03/16 04:36:42;;;;;;;2.87;1.63;;;8.80;58.70;;;;;;5069427;28;20193;-43
2021/03/16 04:39:07;;;;;;;2.60;2.00;;;8.90;58.80;;;;;;5069922;28;20191;-43
2021/03/16 04:41:33;;;;;;;6.20;2.27;;;8.70;59.00;;;;;;5049416;28;20230;-44
2021/03/16 04:43:58;;;;;;;5.13;1.83;;;8.60;59.10;;;;;;5068257;28;20191;-44
2021/03/16 04:46:24;;;;;;;4.60;1.83;;;8.30;59.60;;;;;;5068648;28;20237;-44
2021/03/16 04:48:50;;;;;;;5.07;2.13;;;8.40;60.10;;;;;;5069180;28;20697;-44
2021/03/16 04:51:16;;;;;;;4.60;2.17;;;8.40;59.80;;;;;;5068613;28;20662;-44
2021/03/16 04:53:41;;;;;;;6.77;2.27;;;8.50;59.80;;;;;;5068224;28;20434;-44
2021/03/16 04:56:07;;;;;;;5.03;2.50;;;8.60;59.80;;;;;;5067517;28;20267;-44
2021/03/16 04:58:32;;;;;;;4.33;1.97;;;8.80;59.50;;;;;;5051690;28;20647;-44
2021/03/16 05:00:58;;;;;;;2.30;2.07;;;8.90;59.30;;;;;;5064349;28;20218;-44
2021/03/16 05:03:24;;;;;;;4.30;2.40;;;8.90;59.10;;;;;;5069552;28;20199;-44
2021/03/16 05:05:49;;;;;;;3.77;1.80;;;8.90;59.00;;;;;;5065645;28;20192;-44
2021/03/16 05:08:15;;;;;;;4.63;2.50;;;9.10;59.00;;;;;;5070297;28;20297;-44
2021/03/16 05:10:40;;;;;;;7.20;2.43;;;9.20;58.70;;;;;;5061267;28;20203;-44
2021/03/16 05:13:07;;;;;;;4.13;2.10;;;9.40;58.50;;;;;;5070678;28;20191;-44
2021/03/16 05:15:32;;;;;;;2.67;1.90;;;9.50;58.30;;;;;;5073605;28;20738;-44
2021/03/16 05:17:58;;;;;;;6.43;2.60;;;9.50;57.90;;;;;;5067646;28;20636;-44
2021/03/16 05:20:23;;;;;;;4.77;2.60;;;9.50;57.80;;;;;;5071841;28;20639;-44
2021/03/16 05:22:50;;;;;;;8.60;2.50;;;9.40;58.30;;;;;;5068731;28;20192;-44
2021/03/16 05:25:15;;;;;;;3.57;2.17;;;9.50;57.70;;;;;;5069642;28;20187;-44
2021/03/16 05:27:41;;;;;;;5.80;2.10;;;9.60;57.60;;;;;;5073481;28;20488;-44
2021/03/16 05:30:08;;;;;;;8.60;2.37;;;9.50;57.30;;;;;;5069792;28;20188;-44
2021/03/16 05:32:34;;;;;;;5.40;2.37;;;9.50;57.50;;;;;;5072562;28;20719;-44
2021/03/16 05:34:59;;;;;;;5.40;1.70;;;9.40;57.50;;;;;;5073294;28;20838;-44
2021/03/16 05:37:25;;;;;;;4.13;1.67;;;9.20;57.90;;;;;;5073325;28;20736;-45
2021/03/16 05:39:51;;;;;;;6.83;1.97;;;9.20;57.90;;;;;;5071015;28;20231;-44
2021/03/16 05:42:17;;;;;;;7.70;2.77;;;9.20;58.30;;;;;;5072314;28;20643;-44
2021/03/16 05:44:45;;;;;;;3.90;1.97;;;9.30;58.30;;;;;;5071119;28;20199;-44
2021/03/16 05:47:12;;;;;;;2.87;1.70;;;9.30;58.30;;;;;;5071262;28;20531;-44
2021/03/16 05:49:40;;;;;;;5.13;2.30;;;9.30;58.30;;;;;;5073107;28;20445;-45
2021/03/16 05:52:08;;;;;;;6.20;2.40;;;9.20;58.20;;;;;;5073016;28;20533;-43
2021/03/16 05:54:34;;;;;;;6.23;2.27;;;9.20;58.20;;;;;;5073677;28;20456;-44
2021/03/16 05:57:00;;;;;;;4.50;2.10;;;9.20;58.10;;;;;;5068600;28;20849;-45
2021/03/16 05:59:26;;;;;;;4.30;1.87;;;9.20;58.00;;;;;;5071438;28;20434;-45
2021/03/16 06:01:52;;;;;;;6.60;2.40;;;9.30;58.00;;;;;;5066351;28;20194;-44
2021/03/16 06:04:18;;;;;;;4.27;2.17;;;9.30;58.20;;;;;;5073448;28;20513;-43
2021/03/16 06:06:44;;;;;;;8.63;2.00;;;9.30;58.00;;;;;;5069110;28;20222;-44
2021/03/16 06:09:10;;;;;;;1.93;1.70;;;9.30;58.00;;;;;;5072703;28;20220;-44
2021/03/16 06:11:44;;;;;;;6.07;2.53;;;9.10;58.20;;;;;;5062599;28;20815;-44
2021/03/16 06:14:10;;;;;;;5.90;2.10;;;8.80;58.30;;;;;;5065242;28;20237;-44
2021/03/16 06:16:37;;;;;;;6.70;2.40;;;8.80;58.90;;;;;;5070956;28;20937;-44
2021/03/16 06:19:02;;;;;;;2.07;1.80;;;8.90;59.10;;;;;;5073269;28;20196;-45
2021/03/16 06:21:30;;;;;;;5.60;2.70;;;8.90;59.00;;;;;;5067235;28;20811;-44
2021/03/16 06:23:58;;;;;;;4.97;2.17;;;8.90;58.60;;;;;;5068941;28;20651;-44
2021/03/16 06:26:32;;;;;;;4.67;2.20;;;8.70;58.50;;;;;;5072303;28;20441;-44
2021/03/16 06:29:05;;;;;;;8.90;3.00;;;8.90;58.80;;;;;;5058093;28;20490;-44
2021/03/16 06:31:31;;;;;;;3.00;2.20;;;9.10;58.50;;;;;;5065527;28;20477;-46
2021/03/16 06:33:57;;;;;;;7.10;2.67;;;8.90;58.10;;;;;;5068521;28;20473;-44
2021/03/16 06:36:26;;;;;;;6.10;2.33;;;9.10;58.20;;;;;;5071364;28;20200;-44
2021/03/16 06:38:52;;;;;;;6.63;2.33;;;9.00;58.00;;;;;;5071107;28;20279;-45
2021/03/16 06:41:19;;;;;;;5.90;1.87;;;9.10;58.20;;;;;;5071750;28;20545;-44
2021/03/16 06:44:00;;;;;;;2.57;1.80;;;9.00;58.20;;;;;;5073038;28;20544;-44
2021/03/16 06:46:30;;;;;;;6.13;1.90;;;9.10;58.30;;;;;;5070856;28;20438;-44
2021/03/16 06:48:56;;;;;;;6.43;2.27;;;9.10;58.20;;;;;;5072337;28;20926;-46
2021/03/16 06:51:26;;;;;;;5.63;2.43;;;9.00;58.30;;;;;;5069274;28;20522;-44
2021/03/16 06:53:52;;;;;;;3.50;2.50;;;8.90;58.50;;;;;;5072010;28;20228;-44
2021/03/16 06:56:29;;;;;;;5.80;2.57;;;8.70;58.70;;;;;;5071321;28;20458;-44
2021/03/16 06:58:54;;;;;;;5.57;2.17;;;9.00;58.90;;;;;;5071274;28;20192;-44
2021/03/16 07:01:20;;;;;;;4.13;2.30;;;9.10;58.60;;;;;;5072253;28;20495;-44
2021/03/16 07:03:47;;;;;;;11.47;2.60;;;9.30;58.60;;;;;;5071578;28;20196;-44
2021/03/16 07:06:21;;;;;;;6.00;2.00;;;9.20;58.10;;;;;;5072405;28;20442;-44
2021/03/16 07:08:50;;;;;;;5.23;2.73;;;9.20;58.30;;;;;;5072828;28;20495;-45
2021/03/16 07:11:18;;;;;;;9.30;6.53;;;9.20;58.50;;;;;;5071692;28;20918;-44
2021/03/16 07:13:45;;;;;;;5.93;2.83;;;9.20;58.30;;;;;;5071875;28;20434;-44
2021/03/16 07:16:12;;;;;;;2.50;2.00;;;9.30;58.40;;;;;;5071099;28;20438;-44
2021/03/16 07:18:40;;;;;;;4.60;2.77;;;9.20;58.20;;;;;;5068463;28;20449;-44
2021/03/16 07:21:25;;;;;;;4.93;2.43;;;9.10;58.70;;;;;;5071678;28;20534;-47
2021/03/16 07:23:59;;;;;;;6.90;2.20;;;9.30;58.70;;;;;;5071736;28;20438;-46
2021/03/16 07:26:26;;;;;;;4.80;2.03;;;9.30;58.80;;;;;;5071473;28;20438;-44
2021/03/16 07:28:52;;;;;;;5.80;2.27;;;9.20;59.20;;;;;;5067369;28;20493;-45
2021/03/16 07:31:18;;;;;;;3.57;2.53;;;9.10;59.60;;;;;;5070966;28;20461;-44
2021/03/16 07:33:44;;;;;;;3.60;3.10;;;8.70;60.80;;;;;;5071631;28;20539;-44
2021/03/16 07:36:10;;;;;;;11.17;3.80;;;8.70;61.70;;;;;;5068168;28;20929;-44
2021/03/16 07:38:39;;;;;;;5.80;2.77;;;8.90;62.00;;;;;;5060159;28;20594;-45
2021/03/16 07:41:06;;;;;;;4.77;3.00;;;9.20;61.50;;;;;;5071555;28;20446;-45
2021/03/16 07:43:33;;;;;;;4.87;3.33;;;9.10;61.20;;;;;;5067980;28;20450;-45
2021/03/16 07:46:12;;;;;;;5.47;2.83;;;9.20;61.30;;;;;;5069086;28;20438;-45
2021/03/16 07:48:52;;;;;;;6.07;2.73;;;9.20;61.20;;;;;;5068334;28;20518;-44
2021/03/16 07:51:22;;;;;;;4.47;2.67;;;9.30;60.70;;;;;;5069566;28;20918;-45
2021/03/16 07:54:05;;;;;;;3.83;2.47;;;9.40;60.30;;;;;;5070740;28;20930;-44
2021/03/16 07:56:35;;;;;;;7.30;2.47;;;9.50;60.20;;;;;;5070327;28;20438;-44
2021/03/16 07:59:03;;;;;;;5.23;2.80;;;9.70;60.00;;;;;;5069620;28;20477;-44
2021/03/16 08:01:29;;;;;;;3.47;2.07;;;9.90;59.60;;;;;;5070048;28;20460;-44
2021/03/16 08:04:05;;;;;;;6.57;2.50;;;10.00;58.60;;;;;;5066510;28;20822;-44
2021/03/16 08:06:33;;;;;;;7.30;2.83;;;10.00;58.30;;;;;;5067161;28;20491;-42
2021/03/16 08:08:59;;;;;;;7.57;2.70;;;10.10;58.20;;;;;;5056863;28;20993;-43
2021/03/16 08:11:45;;;;;;;5.13;3.23;;;10.40;58.10;;;;;;5067810;28;20466;-44
2021/03/16 08:14:11;;;;;;;9.40;3.20;;;10.50;57.90;;;;;;5068206;28;20499;-44
2021/03/16 08:16:43;;;;;;;7.17;3.07;;;10.70;58.50;;;;;;5066110;28;20810;-44
2021/03/16 08:19:20;;;;;;;7.87;3.20;;;10.80;57.00;;;;;;5068438;28;20281;-45
2021/03/16 08:21:57;;;;;;;7.77;3.10;;;10.60;56.80;;;;;;5067612;28;21055;-47
2021/03/16 08:24:38;;;;;;;8.13;3.63;;;10.40;57.20;;;;;;5068548;28;20434;-45
2021/03/16 08:27:07;;;;;;;3.20;2.80;;;10.40;57.40;;;;;;5069071;28;20437;-44
2021/03/16 08:29:33;;;;;;;10.57;3.77;;;10.40;57.60;;;;;;5070756;28;20448;-45
2021/03/16 08:31:59;;;;;;;15.13;3.40;;;10.50;57.30;;;;;;5069214;28;20831;-45
2021/03/16 08:34:29;;;;;;;7.07;3.60;;;10.40;57.10;;;;;;5070793;28;20453;-46
2021/03/16 08:36:55;;;;;;;4.07;3.07;;;10.20;57.10;;;;;;5070445;28;20435;-44
2021/03/16 08:39:28;;;;;;;6.67;3.00;;;10.30;57.50;;;;;;5071456;28;20921;-44
2021/03/16 08:41:59;;;;;;;7.60;2.43;;;10.20;57.50;;;;;;5068434;28;21077;-44
2021/03/16 08:44:26;;;;;;;6.77;2.77;;;9.80;58.30;;;;;;5070106;28;20438;-44
2021/03/16 08:46:53;;;;;;;7.43;2.97;;;9.70;59.10;;;;;;5069849;28;20426;-45
2021/03/16 08:49:22;;;;;;;4.63;2.60;;;9.80;59.10;;;;;;5070697;28;20485;-44
2021/03/16 08:51:47;;;;;;;4.40;2.70;;;10.00;58.00;;;;;;5070410;28;20423;-45
2021/03/16 08:54:27;;;;;;;2.73;2.33;;;10.30;57.80;;;;;;5070798;28;20483;-44
2021/03/16 08:56:53;;;;;;;11.13;2.80;;;10.50;57.50;;;;;;5061690;28;20233;-44
2021/03/16 08:59:20;;;;;;;4.07;2.40;;;10.60;57.30;;;;;;5066141;28;20442;-44
2021/03/16 09:01:50;;;;;;;7.37;3.10;;;10.60;57.10;;;;;;5068947;28;20466;-44
2021/03/16 09:04:17;;;;;;;7.03;2.90;;;10.70;56.90;;;;;;5065817;28;20441;-44
2021/03/16 09:06:49;;;;;;;7.07;3.03;;;10.50;56.80;;;;;;5068169;28;20430;-44
2021/03/16 09:09:26;;;;;;;6.67;2.50;;;10.40;56.60;;;;;;5066868;28;20498;-45
2021/03/16 09:11:53;;;;;;;6.90;2.73;;;10.40;57.40;;;;;;5066000;28;20430;-45
2021/03/16 09:14:20;;;;;;;3.83;2.37;;;10.40;57.00;;;;;;5070218;28;20440;-44
2021/03/16 09:16:51;;;;;;;4.20;2.43;;;10.30;56.30;;;;;;5070653;28;20429;-44
2021/03/16 09:19:20;;;;;;;5.97;2.83;;;10.20;56.60;;;;;;5070264;28;20438;-44
2021/03/16 09:21:51;;;;;;;5.93;2.80;;;10.20;57.00;;;;;;5069223;28;20430;-45
2021/03/16 09:24:27;;;;;;;4.77;2.60;;;10.00;56.80;;;;;;5069497;28;20438;-45
2021/03/16 09:26:57;;;;;;;3.13;2.00;;;9.90;57.80;;;;;;5068843;28;20437;-45
2021/03/16 09:29:37;;;;;;;4.23;2.73;;;10.00;57.00;;;;;;5067020;28;20469;-44
2021/03/16 09:32:08;;;;;;;5.43;2.47;;;9.80;57.60;;;;;;5066555;28;20549;-43
2021/03/16 09:34:36;;;;;;;6.77;2.67;;;9.90;58.30;;;;;;5066402;28;20438;-43
2021/03/16 09:37:08;;;;;;;3.47;2.77;;;10.20;57.50;;;;;;5059466;28;20438;-44
2021/03/16 09:39:34;;;;;;;5.63;2.50;;;10.20;56.80;;;;;;5067850;28;20880;-44
2021/03/16 09:42:01;;;;;;;6.67;2.97;;;10.10;57.10;;;;;;5065334;28;20426;-43
2021/03/16 09:44:42;;;;;;;5.37;2.93;;;10.00;57.10;;;;;;5055423;28;20430;-43
2021/03/16 09:47:08;;;;;;;6.10;3.00;;;10.20;57.00;;;;;;5065752;28;20906;-43
2021/03/16 09:49:39;;;;;;;8.40;3.07;;;10.00;56.40;;;;;;5070032;28;20788;-44
2021/03/16 09:52:10;;;;;;;12.77;3.33;;;9.60;57.80;;;;;;5069439;28;20442;-43
2021/03/16 09:54:44;;;;;;;5.27;2.73;;;9.50;57.80;;;;;;5069252;28;20450;-44
2021/03/16 09:57:13;;;;;;;4.07;2.33;;;9.60;58.00;;;;;;5070737;28;20796;-43
2021/03/16 09:59:44;;;;;;;8.97;2.77;;;9.60;57.70;;;;;;5070717;28;20430;-43
2021/03/16 10:02:10;;;;;;;3.03;2.40;;;9.70;57.90;;;;;;5072779;28;20429;-43
2021/03/16 10:04:51;;;;;;;5.40;2.90;;;9.70;58.00;;;;;;5072920;28;20765;-43
2021/03/16 10:07:27;;;;;;;4.47;2.47;;;9.80;58.20;;;;;;5068973;28;20477;-43
2021/03/16 10:09:53;;;;;;;3.73;2.93;;;10.00;57.40;;;;;;5071495;28;20433;-43
2021/03/16 10:12:21;;;;;;;6.40;2.37;;;10.00;57.10;;;;;;5070947;28;20434;-43
2021/03/16 10:14:51;;;;;;;6.43;2.87;;;10.00;57.20;;;;;;5066064;28;20426;-43
2021/03/16 10:17:27;;;;;;;3.47;2.30;;;10.00;56.90;;;;;;5073619;28;20780;-43
2021/03/16 10:19:59;;;;;;;5.17;2.50;;;10.10;56.70;;;;;;5071160;28;20453;-44
2021/03/16 10:22:30;;;;;;;4.10;2.33;;;10.20;57.00;;;;;;5070309;28;20474;-43
2021/03/16 10:24:57;;;;;;;5.80;2.83;;;10.20;56.10;;;;;;5067916;28;20950;-43
2021/03/16 10:27:24;;;;;;;5.87;3.33;;;10.00;56.70;;;;;;5072499;28;20466;-43
2021/03/16 10:29:50;;;;;;;6.70;3.53;;;10.00;56.80;;;;;;5063870;28;20431;-43
2021/03/16 10:32:16;;;;;;;6.23;2.90;;;10.10;57.00;;;;;;5069327;28;20474;-44
2021/03/16 10:34:41;;;;;;;5.43;3.97;;;10.00;56.80;;;;;;5066088;28;20441;-44
2021/03/16 10:37:16;;;;;;;7.00;3.13;;;10.20;56.90;;;;;;5071878;28;20196;-44
2021/03/16 10:39:42;;;;;;;4.40;3.00;;;10.10;56.20;;;;;;5071685;28;20194;-43
2021/03/16 10:42:07;;;;;;;6.80;3.60;;;10.10;56.40;;;;;;5071578;28;20777;-43
2021/03/16 10:44:33;;;;;;;10.37;3.03;;;10.20;56.20;;;;;;5071941;28;20192;-43
2021/03/16 10:46:58;;;;;;;5.80;3.17;;;10.10;55.60;;;;;;5071034;28;20226;-44
2021/03/16 10:49:24;;;;;;;5.77;3.40;;;10.20;56.20;;;;;;5071397;28;20615;-43
2021/03/16 10:51:50;;;;;;;9.83;3.30;;;10.50;56.10;;;;;;5071535;28;20274;-43
2021/03/16 10:54:15;;;;;;;5.60;3.03;;;10.60;55.80;;;;;;5071172;28;20575;-43
2021/03/16 10:56:41;;;;;;;6.87;2.90;;;10.50;54.90;;;;;;5071001;28;20188;-44
2021/03/16 10:59:06;;;;;;;4.80;3.00;;;10.40;55.10;;;;;;5071609;28;20249;-45
2021/03/16 11:01:32;;;;;;;4.00;2.90;;;10.50;55.00;;;;;;5071693;28;20196;-44
2021/03/16 11:03:58;;;;;;;11.50;2.87;;;10.70;55.30;;;;;;5068036;28;20196;-43
2021/03/16 11:06:24;;;;;;;8.03;3.87;;;10.70;55.20;;;;;;5071318;28;20192;-43
2021/03/16 11:08:49;;;;;;;6.90;3.00;;;10.90;55.20;;;;;;5071572;28;20516;-44
2021/03/16 11:11:15;;;;;;;7.97;3.70;;;11.00;54.50;;;;;;5071345;28;20434;-44
2021/03/16 11:13:40;;;;;;;5.50;3.30;;;10.90;53.80;;;;;;5070487;28;20968;-44
2021/03/16 11:16:06;;;;;;;6.93;3.20;;;11.10;53.90;;;;;;5068820;28;20192;-43
2021/03/16 11:18:32;;;;;;;5.90;3.53;;;11.20;54.20;;;;;;5072824;28;20221;-43
2021/03/16 11:20:57;;;;;;;8.87;3.60;;;11.40;54.00;;;;;;5070563;28;20278;-44
2021/03/16 11:23:23;;;;;;;6.60;3.20;;;11.50;53.20;;;;;;5069395;28;20196;-43
2021/03/16 11:25:48;;;;;;;5.20;3.60;;;11.40;52.40;;;;;;5070089;28;20557;-43
2021/03/16 11:28:14;;;;;;;10.57;3.57;;;11.30;52.20;;;;;;5072236;28;20926;-44
2021/03/16 11:30:39;;;;;;;10.33;3.73;;;11.40;52.00;;;;;;5066292;28;20232;-43
2021/03/16 11:33:05;;;;;;;4.87;3.77;;;11.50;51.90;;;;;;5066880;28;20200;-43
2021/03/16 11:35:32;;;;;;;5.73;3.37;;;11.60;51.60;;;;;;5067402;28;20192;-43
2021/03/16 11:37:57;;;;;;;11.60;3.73;;;11.30;50.50;;;;;;5063178;28;20188;-43
2021/03/16 11:40:23;;;;;;;8.00;3.30;;;11.30;50.60;;;;;;5070046;28;20430;-43
2021/03/16 11:42:49;;;;;;;5.83;2.70;;;11.30;51.00;;;;;;5071685;28;20245;-43
2021/03/16 11:45:14;;;;;;;7.60;2.70;;;11.40;51.80;;;;;;5071646;28;20196;-43
2021/03/16 11:47:40;;;;;;;7.70;3.83;;;11.50;50.70;;;;;;5070668;28;20700;-43
2021/03/16 11:50:06;;;;;;;4.00;3.10;;;11.80;50.70;;;;;;5071175;28;20667;-43
2021/03/16 11:52:32;;;;;;;3.07;2.60;;;11.90;50.60;;;;;;5070775;28;20218;-43
2021/03/16 11:54:58;;;;;;;7.03;2.90;;;11.90;50.10;;;;;;5071020;28;20438;-43
2021/03/16 11:57:23;;;;;;;10.20;3.73;;;11.80;49.80;;;;;;5070407;28;20196;-43
2021/03/16 11:59:50;;;;;;;7.50;3.10;;;11.70;50.00;;;;;;5069779;28;20192;-43
2021/03/16 12:02:16;;;;;;;7.03;3.30;;;11.50;50.30;;;;;;5069964;28;20325;-43
2021/03/16 12:04:42;;;;;;;3.50;3.10;;;11.40;50.40;;;;;;5071293;28;20525;-43
2021/03/16 12:07:07;;;;;;;5.67;3.43;;;10.80;51.40;;;;;;5070301;28;20643;-43
2021/03/16 12:09:33;;;;;;;5.47;2.87;;;10.50;53.20;;;;;;5071273;28;20192;-43
2021/03/16 12:11:58;;;;;;;9.27;2.90;;;10.30;54.70;;;;;;5067915;28;20188;-42
2021/03/16 12:14:24;;;;;;;10.80;3.00;;;10.20;55.20;;;;;;5069343;28;20586;-42
2021/03/16 12:16:50;;;;;;;6.30;2.70;;;10.20;55.40;;;;;;5049870;28;20229;-43
2021/03/16 12:19:15;;;;;;;7.47;3.60;;;10.30;55.50;;;;;;5070312;28;20196;-42
2021/03/16 12:21:41;;;;;;;8.20;3.67;;;10.50;55.40;;;;;;5069891;28;20543;-42
2021/03/16 12:24:07;;;;;;;4.47;3.30;;;10.70;55.50;;;;;;5070825;28;20533;-42
2021/03/16 12:26:33;;;;;;;6.63;3.30;;;10.90;55.30;;;;;;5067178;28;20192;-42
2021/03/16 12:28:58;;;;;;;6.17;3.10;;;10.90;55.30;;;;;;5060706;28;20555;-42
2021/03/16 12:31:24;;;;;;;14.07;3.73;;;11.10;55.50;;;;;;5068635;28;20247;-43
2021/03/16 12:33:49;;;;;;;6.03;2.80;;;11.10;55.80;;;;;;5064382;28;20564;-44
2021/03/16 12:36:15;;;;;;;7.20;3.13;;;11.20;55.60;;;;;;5063042;28;20669;-43
2021/03/16 12:38:41;;;;;;;6.77;2.97;;;11.30;55.40;;;;;;5066367;28;20188;-43
2021/03/16 12:41:06;;;;;;;5.27;2.73;;;11.10;54.00;;;;;;5065224;28;20193;-43
2021/03/16 12:43:32;;;;;;;8.93;2.90;;;11.00;52.80;;;;;;5063379;28;20267;-43
2021/03/16 12:45:57;;;;;;;5.30;2.50;;;11.00;53.50;;;;;;5055454;28;20184;-42
2021/03/16 12:48:23;;;;;;;6.20;2.87;;;11.20;53.60;;;;;;5062606;28;20232;-42
2021/03/16 12:50:49;;;;;;;10.13;3.27;;;11.30;52.70;;;;;;5064573;28;20202;-42
2021/03/16 12:53:14;;;;;;;5.63;2.27;;;11.20;51.70;;;;;;5063691;28;20196;-43
2021/03/16 12:55:41;;;;;;;7.03;2.20;;;11.10;51.70;;;;;;5065840;28;20197;-43